Time;durP1;ratioP1;P1;durP2;ratioP2;P2;SDS_P1;SDS_P2;PMS_P1;PMS_P2;Temp;Humidity;BMP_temperature;BMP_pressure;BME280_temperature;BME280_humidity;BME280_pressure;Samples;Min_cycle;Max_cycle;Signal;HPM_P1;HPM_P2
2021/08/30 00:00:49;;;;;;;18.53;16.90;;;;;;;15.70;100.00;100662.94;5037534;28;20264;-77
2021/08/30 00:03:16;;;;;;;18.80;17.10;;;;;;;15.69;100.00;100650.69;5039417;28;20203;-79
2021/08/30 00:05:43;;;;;;;17.47;15.97;;;;;;;15.75;100.00;100660.16;5039089;28;20237;-79
2021/08/30 00:08:10;;;;;;;18.30;16.73;;;;;;;15.78;100.00;100665.34;5038401;28;20211;-77
2021/08/30 00:10:37;;;;;;;17.20;15.80;;;;;;;15.76;100.00;100672.44;5038797;28;20225;-77
2021/08/30 00:13:03;;;;;;;18.70;16.87;;;;;;;15.78;100.00;100678.50;5038166;28;20229;-78
2021/08/30 00:15:29;;;;;;;18.13;16.20;;;;;;;15.72;100.00;100673.41;5038746;28;20291;-78
2021/08/30 00:17:57;;;;;;;17.90;16.40;;;;;;;15.78;100.00;100667.97;5038650;28;20204;-76
2021/08/30 00:20:24;;;;;;;17.10;15.77;;;;;;;15.79;100.00;100674.94;5037408;28;20229;-79
2021/08/30 00:22:51;;;;;;;16.90;15.60;;;;;;;15.83;100.00;100669.50;5038219;28;20276;-78
2021/08/30 00:25:17;;;;;;;18.50;16.83;;;;;;;15.86;100.00;100679.06;5036671;28;20219;-77
2021/08/30 00:27:43;;;;;;;18.33;16.87;;;;;;;15.76;100.00;100670.66;5039461;28;20257;-78
2021/08/30 00:30:11;;;;;;;19.17;17.60;;;;;;;15.80;100.00;100674.03;5038829;28;20234;-78
2021/08/30 00:32:38;;;;;;;17.83;16.10;;;;;;;15.83;100.00;100682.66;5039445;28;20307;-78
2021/08/30 00:35:06;;;;;;;19.03;17.27;;;;;;;15.78;100.00;100686.41;5037056;28;20257;-79
2021/08/30 00:37:34;;;;;;;18.33;16.77;;;;;;;15.67;100.00;100666.53;5037350;28;20199;-79
2021/08/30 00:40:00;;;;;;;19.40;17.60;;;;;;;15.66;100.00;100662.19;5039842;28;20206;-77
2021/08/30 00:42:27;;;;;;;18.47;17.00;;;;;;;15.71;100.00;100661.16;5036832;28;20680;-77
2021/08/30 00:44:53;;;;;;;17.97;16.23;;;;;;;15.72;100.00;100669.03;5036584;28;20308;-78
2021/08/30 00:47:20;;;;;;;18.37;16.57;;;;;;;15.74;100.00;100668.97;5037913;28;20219;-78
2021/08/30 00:49:47;;;;;;;17.20;15.80;;;;;;;15.74;100.00;100672.47;5037681;28;20210;-78
2021/08/30 00:52:13;;;;;;;18.20;16.80;;;;;;;15.75;100.00;100673.34;5038429;28;20231;-76
2021/08/30 00:54:41;;;;;;;17.37;15.90;;;;;;;15.71;100.00;100675.19;5039565;28;20289;-77
2021/08/30 00:57:08;;;;;;;18.93;17.47;;;;;;;15.70;100.00;100670.84;5036364;28;20241;-78
2021/08/30 00:59:38;;;;;;;19.33;17.13;;;;;;;15.78;100.00;100673.22;5037011;28;20207;-77
2021/08/30 01:02:05;;;;;;;17.87;16.27;;;;;;;15.74;100.00;100690.91;5037044;28;20230;-78
2021/08/30 01:04:31;;;;;;;18.70;17.13;;;;;;;15.74;100.00;100687.38;5037963;28;20213;-78
2021/08/30 01:07:02;;;;;;;18.47;16.80;;;;;;;15.78;100.00;100689.03;5037828;28;20242;-78
2021/08/30 01:09:37;;;;;;;18.70;17.10;;;;;;;15.75;100.00;100699.66;5035858;28;20313;-78
2021/08/30 01:12:09;;;;;;;18.40;16.80;;;;;;;15.72;100.00;100697.97;5036097;28;20309;-77
2021/08/30 01:14:45;;;;;;;17.63;16.17;;;;;;;15.63;100.00;100693.88;5037023;28;20241;-78
2021/08/30 01:17:11;;;;;;;17.40;15.70;;;;;;;15.67;100.00;100687.59;5037584;28;20813;-77
2021/08/30 01:19:44;;;;;;;17.30;15.80;;;;;;;15.72;100.00;100690.06;5038459;28;20206;-78
2021/08/30 01:22:12;;;;;;;17.53;16.23;;;;;;;15.73;100.00;100693.59;5036162;28;20231;-77
2021/08/30 01:24:39;;;;;;;18.77;16.20;;;;;;;15.75;100.00;100703.13;5036490;28;20209;-77
2021/08/30 01:27:07;;;;;;;17.33;16.13;;;;;;;15.74;100.00;100706.69;5038757;28;20206;-77
2021/08/30 01:29:40;;;;;;;17.63;16.27;;;;;;;15.75;100.00;100711.03;5035253;28;20214;-78
2021/08/30 01:32:12;;;;;;;17.67;16.17;;;;;;;15.75;100.00;100707.53;5035440;28;20235;-80
2021/08/30 01:34:42;;;;;;;19.03;17.33;;;;;;;15.71;100.00;100698.00;5036650;28;20441;-78
2021/08/30 01:37:08;;;;;;;20.27;18.30;;;;;;;15.69;100.00;100700.69;5036653;28;20201;-77
2021/08/30 01:39:36;;;;;;;18.87;17.47;;;;;;;15.72;100.00;100687.44;5035974;28;20215;-78
2021/08/30 01:42:03;;;;;;;18.47;16.83;;;;;;;15.74;100.00;100685.66;5036646;28;20258;-77
2021/08/30 01:44:31;;;;;;;18.07;16.57;;;;;;;15.80;100.00;100703.00;5033447;28;20925;-78
2021/08/30 01:46:58;;;;;;;18.50;16.77;;;;;;;15.74;100.00;100704.06;5038030;28;20219;-77
2021/08/30 01:49:26;;;;;;;17.20;15.70;;;;;;;15.79;99.84;100710.00;5036019;28;20681;-77
2021/08/30 01:51:54;;;;;;;17.70;15.90;;;;;;;15.78;100.00;100710.94;5037561;28;20262;-77
2021/08/30 01:54:23;;;;;;;16.93;15.33;;;;;;;15.79;100.00;100720.53;5034372;28;20206;-77
2021/08/30 01:56:51;;;;;;;16.23;14.93;;;;;;;15.73;99.95;100710.22;5035892;28;20210;-78
2021/08/30 02:02:06;;;;;;;17.90;16.20;;;;;;;15.65;99.84;100726.25;5034123;28;20715;-77
2021/08/30 02:04:32;;;;;;;16.93;15.57;;;;;;;15.70;99.95;100715.59;5036725;28;20253;-77
2021/08/30 02:07:00;;;;;;;17.77;16.10;;;;;;;15.69;100.00;100719.97;5034060;28;20203;-77
2021/08/30 02:09:28;;;;;;;19.20;17.37;;;;;;;15.71;100.00;100719.91;5033592;28;20260;-78
2021/08/30 02:11:54;;;;;;;16.90;15.40;;;;;;;15.73;100.00;100714.66;5036316;28;20324;-78
2021/08/30 02:14:21;;;;;;;18.13;16.73;;;;;;;15.72;100.00;100713.75;5035381;28;20287;-79
2021/08/30 02:16:49;;;;;;;18.10;16.70;;;;;;;15.71;100.00;100716.44;5035258;28;20202;-78
2021/08/30 02:19:25;;;;;;;17.37;16.03;;;;;;;15.75;100.00;100702.28;5034918;28;20214;-77
2021/08/30 02:21:55;;;;;;;18.43;16.83;;;;;;;15.74;100.00;100709.31;5034077;28;20275;-76
2021/08/30 02:24:30;;;;;;;18.57;17.13;;;;;;;15.76;100.00;100714.53;5034104;28;21009;-77
2021/08/30 02:27:02;;;;;;;20.00;18.13;;;;;;;15.73;100.00;100698.84;5035063;28;20206;-78
2021/08/30 02:29:43;;;;;;;20.20;18.50;;;;;;;15.69;100.00;100705.97;5034046;28;20210;-77
2021/08/30 02:32:10;;;;;;;19.67;17.97;;;;;;;15.76;100.00;100702.25;5032907;28;20238;-78
2021/08/30 02:34:38;;;;;;;20.27;18.50;;;;;;;15.74;100.00;100698.81;5036901;28;20207;-77
2021/08/30 02:37:05;;;;;;;19.57;17.97;;;;;;;15.75;100.00;100705.78;5033968;28;20202;-78
2021/08/30 02:39:35;;;;;;;18.50;17.20;;;;;;;15.73;100.00;100699.69;5035178;28;20238;-78
2021/08/30 02:42:03;;;;;;;19.27;17.73;;;;;;;15.79;100.00;100706.53;5035544;28;20227;-77
2021/08/30 02:44:30;;;;;;;19.67;17.97;;;;;;;15.81;100.00;100716.06;5036156;28;20213;-78
2021/08/30 02:46:57;;;;;;;18.40;17.00;;;;;;;15.79;100.00;100712.63;5033403;28;20752;-77
2021/08/30 02:49:24;;;;;;;18.77;17.37;;;;;;;15.79;99.96;100720.53;5034111;28;20257;-78
2021/08/30 02:51:52;;;;;;;18.90;17.40;;;;;;;15.77;99.68;100721.50;5034384;28;20287;-77
2021/08/30 02:54:22;;;;;;;18.70;17.10;;;;;;;15.74;100.00;100709.31;5032807;28;20209;-78
2021/08/30 02:56:50;;;;;;;19.33;17.53;;;;;;;15.73;100.00;100715.50;5032703;28;20238;-77
2021/08/30 02:59:17;;;;;;;18.57;17.10;;;;;;;15.72;100.00;100705.88;5035725;28;20210;-77
2021/08/30 03:01:45;;;;;;;19.70;18.20;;;;;;;15.74;100.00;100697.91;5031836;28;20301;-77
2021/08/30 03:04:12;;;;;;;18.30;16.70;;;;;;;15.62;100.00;100688.69;5036089;28;20710;-77
2021/08/30 03:06:39;;;;;;;19.00;17.27;;;;;;;15.65;100.00;100689.41;5034218;28;20239;-78
2021/08/30 03:09:06;;;;;;;19.17;16.90;;;;;;;15.70;100.00;100684.00;5033017;28;20238;-77
2021/08/30 03:11:33;;;;;;;16.77;15.47;;;;;;;15.75;99.93;100707.53;5033819;28;20230;-78
2021/08/30 03:14:02;;;;;;;18.93;17.23;;;;;;;15.74;99.94;100714.59;5034398;28;20469;-77
2021/08/30 03:16:29;;;;;;;18.20;16.57;;;;;;;15.68;99.96;100709.53;5032568;28;20731;-78
2021/08/30 03:18:58;;;;;;;18.03;16.67;;;;;;;15.65;100.00;100696.47;5036479;28;20198;-78
2021/08/30 03:21:27;;;;;;;18.63;17.23;;;;;;;15.60;100.00;100694.00;5036949;28;20297;-78
2021/08/30 03:23:55;;;;;;;18.80;17.00;;;;;;;15.62;100.00;100686.06;5035909;28;20468;-77
2021/08/30 03:26:23;;;;;;;18.53;17.03;;;;;;;15.66;100.00;100692.94;5035838;28;20210;-76
2021/08/30 03:28:50;;;;;;;17.97;16.43;;;;;;;15.68;99.97;100705.09;5035951;28;20202;-77
2021/08/30 03:31:18;;;;;;;17.90;16.40;;;;;;;15.72;99.59;100711.13;5036636;28;20230;-78
2021/08/30 03:33:46;;;;;;;19.97;18.17;;;;;;;15.73;99.73;100718.13;5036383;28;20317;-78
2021/08/30 03:36:13;;;;;;;18.87;17.27;;;;;;;15.66;99.90;100706.94;5035207;28;20205;-77
2021/08/30 03:38:41;;;;;;;18.43;16.60;;;;;;;15.64;100.00;100690.34;5035163;28;20211;-80
2021/08/30 03:41:08;;;;;;;18.37;17.03;;;;;;;15.69;100.00;100698.06;5037211;28;20767;-79
2021/08/30 03:43:35;;;;;;;19.00;17.00;;;;;;;15.68;99.78;100710.38;5034893;28;20239;-77
2021/08/30 03:46:02;;;;;;;18.33;16.93;;;;;;;15.63;100.00;100704.41;5037093;28;20461;-77
2021/08/30 03:48:31;;;;;;;18.13;16.73;;;;;;;15.61;100.00;100687.81;5033637;28;20213;-78
2021/08/30 03:50:58;;;;;;;18.53;16.87;;;;;;;15.64;100.00;100689.50;5038495;28;20733;-78
2021/08/30 03:53:26;;;;;;;18.27;16.53;;;;;;;15.65;100.00;100689.41;5032962;28;20288;-78
2021/08/30 03:55:52;;;;;;;20.13;18.43;;;;;;;15.60;100.00;100694.00;5038054;28;20249;-77
2021/08/30 03:58:20;;;;;;;19.60;17.90;;;;;;;15.59;100.00;100680.91;5034077;28;20211;-77
2021/08/30 04:00:48;;;;;;;19.17;17.77;;;;;;;15.64;99.99;100695.59;5033323;28;20707;-77
2021/08/30 04:03:16;;;;;;;18.53;17.23;;;;;;;15.60;99.92;100708.91;5034804;28;20202;-77
2021/08/30 04:05:47;;;;;;;19.07;17.47;;;;;;;15.59;100.00;100700.16;5035605;28;20210;-78
2021/08/30 04:08:13;;;;;;;19.70;18.00;;;;;;;15.43;100.00;100681.44;5034049;28;20333;-78
2021/08/30 04:10:40;;;;;;;17.93;16.37;;;;;;;15.45;100.00;100669.06;5034612;28;20235;-78
2021/08/30 04:13:07;;;;;;;20.27;18.20;;;;;;;15.39;100.00;100668.44;5036353;28;20221;-77
2021/08/30 04:15:33;;;;;;;19.33;17.83;;;;;;;15.44;100.00;100659.50;5039092;28;20234;-78
2021/08/30 04:18:00;;;;;;;21.07;18.53;;;;;;;15.50;100.00;100666.31;5037331;28;20198;-78
2021/08/30 04:20:27;;;;;;;20.23;18.47;;;;;;;15.50;100.00;100684.72;5037353;28;20225;-78
2021/08/30 04:22:54;;;;;;;22.67;19.40;;;;;;;15.43;100.00;100672.69;5038468;28;20199;-78
2021/08/30 04:25:21;;;;;;;21.50;19.23;;;;;;;15.29;100.00;100660.88;5038482;28;20214;-78
2021/08/30 04:27:47;;;;;;;20.47;18.50;;;;;;;15.26;100.00;100649.59;5038299;28;20983;-78
2021/08/30 04:30:14;;;;;;;21.37;19.63;;;;;;;15.30;100.00;100640.69;5037314;28;20798;-78
2021/08/30 04:32:40;;;;;;;19.63;18.03;;;;;;;15.21;100.00;100655.03;5036398;28;20648;-78
2021/08/30 04:35:09;;;;;;;19.83;18.30;;;;;;;15.24;100.00;100651.41;5037780;28;20400;-77
2021/08/30 04:37:36;;;;;;;19.47;17.87;;;;;;;15.26;100.00;100660.13;5038265;28;21356;-77
2021/08/30 04:40:04;;;;;;;19.70;18.03;;;;;;;15.33;100.00;100660.78;5038485;28;20203;-77
2021/08/30 04:42:32;;;;;;;20.73;18.23;;;;;;;15.38;100.00;100674.59;5037465;28;20211;-77
2021/08/30 04:44:58;;;;;;;18.43;16.93;;;;;;;15.41;100.00;100687.66;5038560;28;20564;-78
2021/08/30 04:47:24;;;;;;;18.07;16.73;;;;;;;15.44;100.00;100696.31;5038929;28;20702;-79
2021/08/30 04:49:51;;;;;;;20.03;18.33;;;;;;;15.41;100.00;100709.56;5038445;28;20676;-78
2021/08/30 04:52:17;;;;;;;19.93;18.33;;;;;;;15.42;100.00;100707.78;5037947;28;20664;-77
2021/08/30 04:54:43;;;;;;;21.40;19.53;;;;;;;15.37;100.00;100692.16;5036141;28;20276;-77
2021/08/30 04:57:11;;;;;;;23.30;18.67;;;;;;;15.42;100.00;100679.72;5039756;28;20215;-77
2021/08/30 04:59:38;;;;;;;22.77;20.40;;;;;;;15.39;100.00;100671.09;5036327;28;20240;-78
2021/08/30 05:02:04;;;;;;;21.33;19.23;;;;;;;15.47;100.00;100676.91;5036519;28;20281;-77
2021/08/30 05:04:31;;;;;;;21.40;19.47;;;;;;;15.46;100.00;100685.72;5036780;28;20215;-78
2021/08/30 05:06:57;;;;;;;20.83;19.03;;;;;;;15.38;100.00;100670.22;5036621;28;20218;-78
2021/08/30 05:09:23;;;;;;;22.27;20.03;;;;;;;15.44;100.00;100682.28;5036935;28;20207;-77
2021/08/30 05:11:50;;;;;;;22.50;20.27;;;;;;;15.33;100.00;100684.44;5039833;28;20737;-77
2021/08/30 05:14:17;;;;;;;23.10;20.77;;;;;;;15.37;100.00;100667.66;5035941;28;20638;-78
2021/08/30 05:16:44;;;;;;;22.00;20.03;;;;;;;15.35;100.00;100665.06;5037266;28;20213;-76
2021/08/30 05:19:10;;;;;;;24.30;21.73;;;;;;;15.24;100.00;100654.03;5038073;28;20214;-78
2021/08/30 05:21:36;;;;;;;23.90;21.53;;;;;;;15.26;100.00;100647.84;5037577;28;20269;-77
2021/08/30 05:24:03;;;;;;;22.37;20.43;;;;;;;15.18;100.00;100644.63;5038676;28;20197;-77
2021/08/30 05:26:29;;;;;;;23.03;20.80;;;;;;;15.26;100.00;100649.59;5035286;28;20289;-79
2021/08/30 05:28:55;;;;;;;23.27;21.07;;;;;;;15.25;100.00;100655.78;5039328;28;20345;-78
2021/08/30 05:31:23;;;;;;;23.07;20.73;;;;;;;15.20;100.00;100668.22;5037742;28;20246;-77
2021/08/30 05:33:49;;;;;;;23.77;21.60;;;;;;;15.23;100.00;100652.34;5034310;28;20322;-78
2021/08/30 05:36:16;;;;;;;22.37;20.40;;;;;;;15.26;100.00;100660.13;5037627;28;20267;-77
2021/08/30 05:38:42;;;;;;;22.70;20.80;;;;;;;15.28;100.00;100661.81;5035408;28;20219;-78
2021/08/30 05:41:09;;;;;;;23.00;20.83;;;;;;;15.33;100.00;100672.16;5035412;28;20631;-79
2021/08/30 05:43:35;;;;;;;23.33;21.37;;;;;;;15.37;100.00;100670.28;5032579;28;20210;-77
2021/08/30 05:46:01;;;;;;;24.07;21.90;;;;;;;15.35;100.00;100680.00;5035917;28;20202;-77
2021/08/30 05:48:29;;;;;;;23.80;21.87;;;;;;;15.32;100.00;100685.34;5036810;28;20245;-78
2021/08/30 05:50:55;;;;;;;23.47;21.40;;;;;;;15.34;100.00;100684.41;5033328;28;20281;-78
2021/08/30 05:53:22;;;;;;;22.63;20.30;;;;;;;15.40;100.00;100683.31;5037820;28;20226;-78
2021/08/30 05:55:48;;;;;;;21.67;19.53;;;;;;;15.47;100.00;100713.75;5037761;28;20647;-78
2021/08/30 05:58:14;;;;;;;19.90;18.23;;;;;;;15.27;100.00;100724.97;5035239;28;20207;-77
2021/08/30 06:00:41;;;;;;;21.63;19.97;;;;;;;15.29;100.00;100707.38;5036147;28;20230;-77
2021/08/30 06:03:07;;;;;;;21.70;19.80;;;;;;;15.38;100.00;100701.78;5034094;28;20206;-78
2021/08/30 06:05:35;;;;;;;23.63;21.30;;;;;;;15.35;100.00;100696.63;5036457;28;20859;-78
2021/08/30 06:08:01;;;;;;;22.63;20.60;;;;;;;15.36;100.00;100693.09;5032419;28;20625;-78
2021/08/30 06:10:27;;;;;;;21.73;19.50;;;;;;;15.34;100.00;100702.81;5033863;28;20729;-77
2021/08/30 06:12:54;;;;;;;20.00;18.03;;;;;;;15.34;100.00;100718.59;5033834;28;20773;-78
2021/08/30 06:15:20;;;;;;;22.13;20.23;;;;;;;15.38;100.00;100724.59;5035189;28;20205;-77
2021/08/30 06:17:46;;;;;;;20.63;19.03;;;;;;;15.43;100.00;100734.03;5037793;28;20209;-78
2021/08/30 06:20:13;;;;;;;20.13;18.27;;;;;;;15.35;100.00;100738.72;5034637;28;20241;-78
2021/08/30 06:22:41;;;;;;;21.10;19.17;;;;;;;15.43;100.00;100739.31;5033130;28;20265;-79
2021/08/30 06:25:08;;;;;;;19.43;17.63;;;;;;;15.51;100.00;100746.94;5027706;28;21023;-80
2021/08/30 06:27:35;;;;;;;20.30;18.70;;;;;;;15.42;100.00;100753.38;5028109;28;20690;-78
2021/08/30 06:30:01;;;;;;;19.67;18.13;;;;;;;15.45;100.00;100761.16;5032602;28;20229;-80
2021/08/30 06:32:28;;;;;;;19.13;17.63;;;;;;;15.43;100.00;100772.66;5028698;28;20272;-79
2021/08/30 06:34:54;;;;;;;19.40;17.67;;;;;;;15.45;100.00;100771.69;5028381;28;20229;-79
2021/08/30 06:37:20;;;;;;;21.23;19.17;;;;;;;15.39;100.00;100766.63;5030088;28;20749;-79
2021/08/30 06:39:48;;;;;;;20.90;19.20;;;;;;;15.31;100.00;100744.13;5028159;28;20230;-78
2021/08/30 06:42:14;;;;;;;20.10;18.50;;;;;;;15.37;100.00;100741.28;5030158;28;20706;-78
2021/08/30 06:44:41;;;;;;;18.73;17.03;;;;;;;15.39;100.00;100752.63;5034871;28;20221;-79
2021/08/30 06:47:07;;;;;;;18.70;16.90;;;;;;;15.50;100.00;100761.03;5035825;28;20213;-78
2021/08/30 06:49:34;;;;;;;19.60;17.20;;;;;;;15.58;100.00;100760.72;5033885;28;20210;-79
2021/08/30 06:52:00;;;;;;;18.63;16.93;;;;;;;15.63;99.76;100777.22;5029720;28;20222;-80
2021/08/30 06:54:27;;;;;;;16.90;15.17;;;;;;;15.69;99.23;100798.91;5033331;28;20789;-79
2021/08/30 06:56:54;;;;;;;16.80;15.40;;;;;;;15.73;98.27;100836.56;5030392;28;20206;-79
2021/08/30 06:59:21;;;;;;;16.70;15.10;;;;;;;15.74;98.17;100840.94;5034770;28;20593;-79
2021/08/30 07:01:47;;;;;;;16.50;15.07;;;;;;;15.79;97.84;100859.19;5029917;28;20226;-79
2021/08/30 07:04:14;;;;;;;16.07;14.97;;;;;;;15.72;98.07;100840.09;5027887;28;20257;-79
2021/08/30 07:06:40;;;;;;;16.33;15.03;;;;;;;15.78;98.17;100837.28;5030213;28;20213;-80
2021/08/30 07:09:06;;;;;;;17.63;15.90;;;;;;;15.81;98.26;100833.66;5027777;28;20254;-79
2021/08/30 07:11:33;;;;;;;16.97;15.67;;;;;;;15.85;98.19;100828.25;5027729;28;20234;-80
2021/08/30 07:14:01;;;;;;;17.20;15.57;;;;;;;15.92;97.91;100842.06;5029571;28;20226;-80
2021/08/30 07:16:28;;;;;;;15.77;14.57;;;;;;;15.96;97.08;100864.75;5027792;28;20203;-78
2021/08/30 07:18:55;;;;;;;17.20;15.60;;;;;;;15.93;97.29;100871.88;5030736;28;20207;-79
2021/08/30 07:21:23;;;;;;;16.77;15.00;;;;;;;15.94;97.13;100879.75;5030894;28;20248;-80
2021/08/30 07:23:49;;;;;;;16.40;15.00;;;;;;;15.94;97.62;100863.09;5032706;28;20198;-79
2021/08/30 07:26:16;;;;;;;16.83;15.43;;;;;;;16.00;97.25;100861.09;5032535;28;20680;-79
2021/08/30 07:28:42;;;;;;;15.67;14.13;;;;;;;15.96;97.33;100870.00;5033728;28;20206;-78
2021/08/30 07:31:10;;;;;;;17.00;15.20;;;;;;;15.96;97.58;100850.72;5035090;28;20222;-78
2021/08/30 07:33:36;;;;;;;15.73;13.80;;;;;;;15.97;97.07;100871.72;5035658;28;20238;-80
2021/08/30 07:36:02;;;;;;;15.80;14.23;;;;;;;16.06;96.71;100891.63;5033617;28;20280;-75
2021/08/30 07:38:29;;;;;;;14.67;13.57;;;;;;;16.11;95.75;100912.53;5035294;28;20202;-78
2021/08/30 07:40:55;;;;;;;13.27;12.23;;;;;;;16.11;95.96;100913.38;5033725;28;20225;-79
2021/08/30 07:43:22;;;;;;;14.63;13.53;;;;;;;16.10;96.03;100906.41;5032799;28;20217;-78
2021/08/30 07:45:48;;;;;;;13.87;12.63;;;;;;;16.14;96.08;100908.03;5036576;28;20202;-79
2021/08/30 07:48:16;;;;;;;13.83;12.73;;;;;;;16.18;95.34;100924.59;5034999;28;20232;-79
2021/08/30 07:50:43;;;;;;;14.67;13.47;;;;;;;16.21;95.86;100916.56;5038770;28;20742;-79
2021/08/30 07:53:10;;;;;;;13.97;12.87;;;;;;;16.26;96.20;100904.09;5035469;28;20687;-79
2021/08/30 07:55:36;;;;;;;14.93;13.53;;;;;;;16.17;95.88;100902.63;5038174;28;20210;-78
2021/08/30 07:58:04;;;;;;;15.37;14.03;;;;;;;16.17;96.28;100901.78;5037751;28;20202;-78
2021/08/30 08:00:30;;;;;;;15.80;14.70;;;;;;;16.21;95.66;100927.09;5034359;28;20602;-77
2021/08/30 08:02:57;;;;;;;15.47;14.17;;;;;;;16.18;95.88;100919.31;5033447;28;20619;-78
2021/08/30 08:05:24;;;;;;;14.13;13.03;;;;;;;16.07;96.46;100899.47;5037443;28;20230;-78
2021/08/30 08:07:51;;;;;;;14.37;13.30;;;;;;;16.15;96.72;100888.66;5035780;28;20605;-77
2021/08/30 08:10:18;;;;;;;13.63;12.63;;;;;;;16.18;97.36;100877.16;5037760;28;20238;-79
2021/08/30 08:12:44;;;;;;;12.87;11.93;;;;;;;16.30;96.42;100902.22;5037310;28;20267;-78
2021/08/30 08:15:11;;;;;;;13.50;12.47;;;;;;;16.40;95.86;100930.81;5037858;28;20442;-78
2021/08/30 08:17:37;;;;;;;13.27;12.37;;;;;;;16.46;95.56;100933.22;5037291;28;20256;-78
2021/08/30 08:20:05;;;;;;;13.70;12.60;;;;;;;16.46;95.16;100956.09;5033578;28;20216;-79
2021/08/30 08:22:35;;;;;;;13.27;12.27;;;;;;;16.54;94.81;100975.13;5038687;28;21135;-80
2021/08/30 08:25:03;;;;;;;13.27;12.07;;;;;;;16.59;94.89;100962.66;5035732;28;20421;-79
2021/08/30 08:27:30;;;;;;;13.97;12.83;;;;;;;16.70;94.90;100959.63;5037773;28;20306;-78
2021/08/30 08:29:56;;;;;;;13.23;12.23;;;;;;;16.72;93.91;100989.44;5038978;28;20272;-78
2021/08/30 08:32:23;;;;;;;13.27;11.93;;;;;;;16.81;93.54;101006.72;5036017;28;20252;-79
2021/08/30 08:34:49;;;;;;;13.00;12.03;;;;;;;16.91;94.39;100983.50;5037544;28;20262;-78
2021/08/30 08:37:15;;;;;;;13.33;12.40;;;;;;;16.93;93.31;101008.94;5034902;28;20781;-81
2021/08/30 08:39:44;;;;;;;12.47;11.47;;;;;;;16.94;92.55;101028.25;5032339;28;20207;-77
2021/08/30 08:42:10;;;;;;;12.20;11.10;;;;;;;17.01;92.13;101048.22;5036086;28;20256;-78
2021/08/30 08:44:37;;;;;;;12.50;11.50;;;;;;;17.05;91.58;101069.16;5035712;28;20219;-79
2021/08/30 08:47:03;;;;;;;12.03;10.93;;;;;;;17.15;91.54;101074.09;5035260;28;20206;-79
2021/08/30 08:49:30;;;;;;;12.27;11.37;;;;;;;17.01;91.20;101083.38;5033430;28;20210;-79
2021/08/30 08:51:56;;;;;;;12.80;11.80;;;;;;;16.75;91.47;101076.34;5036675;28;20227;-80
2021/08/30 08:54:22;;;;;;;13.63;12.20;;;;;;;16.75;92.41;101036.78;5037456;28;20220;-78
2021/08/30 08:56:52;;;;;;;13.27;12.37;;;;;;;16.71;93.12;101006.19;5038316;28;20251;-78
2021/08/30 08:59:19;;;;;;;12.87;11.57;;;;;;;16.66;92.57;101008.94;5036101;28;20324;-78
2021/08/30 09:01:56;;;;;;;13.17;12.17;;;;;;;16.68;92.44;101027.34;5033247;28;20954;-79
2021/08/30 09:04:30;;;;;;;12.00;11.00;;;;;;;16.74;92.01;101037.69;5038208;28;20259;-79
2021/08/30 09:07:08;;;;;;;11.13;10.37;;;;;;;16.76;91.25;101071.91;5038319;28;20205;-78
2021/08/30 09:09:37;;;;;;;10.60;9.80;;;;;;;16.75;90.59;101104.44;5038272;28;20273;-78
2021/08/30 09:12:05;;;;;;;11.03;10.20;;;;;;;16.79;90.52;101101.69;5039331;28;20225;-78
2021/08/30 09:14:32;;;;;;;11.10;10.20;;;;;;;16.82;90.56;101106.88;5037217;28;20658;-76
2021/08/30 09:17:03;;;;;;;10.10;9.17;;;;;;;16.94;90.01;101104.72;5031691;28;20203;-79
2021/08/30 09:19:30;;;;;;;10.73;9.93;;;;;;;17.14;91.40;101075.84;5034180;28;20212;-79
2021/08/30 09:21:56;;;;;;;8.67;8.07;;;;;;;17.25;88.64;101152.00;5040025;28;20300;-79
2021/08/30 09:24:24;;;;;;;8.10;7.40;;;;;;;17.29;87.55;101210.81;5035666;28;20693;-80
2021/08/30 09:26:52;;;;;;;7.10;6.60;;;;;;;17.22;85.87;101269.09;5038222;28;20657;-78
2021/08/30 09:29:22;;;;;;;7.47;6.87;;;;;;;17.10;85.74;101271.25;5040452;28;20203;-78
2021/08/30 09:32:03;;;;;;;7.00;6.50;;;;;;;17.07;85.43;101266.94;5040535;28;20234;-78
2021/08/30 09:34:34;;;;;;;6.93;6.43;;;;;;;17.04;85.78;101264.38;5039495;28;20233;-76
2021/08/30 09:37:02;;;;;;;6.33;5.93;;;;;;;17.04;84.61;101296.03;5031396;28;20632;-79
2021/08/30 09:39:30;;;;;;;6.83;6.20;;;;;;;16.97;85.05;101287.47;5041556;28;20209;-77
2021/08/30 09:41:57;;;;;;;7.03;6.43;;;;;;;16.95;85.72;101251.53;5035450;28;20234;-78
2021/08/30 09:44:27;;;;;;;6.37;5.87;;;;;;;17.04;85.63;101238.00;5031449;28;20216;-78
2021/08/30 09:46:54;;;;;;;7.17;6.67;;;;;;;17.19;84.54;101278.88;5035193;28;20249;-77
2021/08/30 09:49:25;;;;;;;7.50;6.90;;;;;;;17.34;84.52;101280.13;5033363;28;20277;-78
2021/08/30 09:51:52;;;;;;;6.17;5.77;;;;;;;17.57;83.70;101289.91;5033702;28;20226;-78
2021/08/30 09:54:20;;;;;;;6.00;5.50;;;;;;;17.68;82.64;101316.81;5030827;28;20235;-79
2021/08/30 09:56:48;;;;;;;6.63;6.13;;;;;;;17.81;81.92;101327.78;5027976;28;20707;-79
2021/08/30 09:59:15;;;;;;;6.40;5.97;;;;;;;17.89;81.37;101389.16;5036616;28;20252;-79
2021/08/30 10:01:45;;;;;;;6.10;5.40;;;;;;;17.90;81.31;101383.00;5035302;28;20725;-79
2021/08/30 10:04:12;;;;;;;5.87;5.33;;;;;;;17.88;81.03;101390.09;5028038;28;20214;-78
2021/08/30 10:06:40;;;;;;;6.53;6.03;;;;;;;17.78;80.81;101389.50;5031931;28;20214;-78
2021/08/30 10:09:12;;;;;;;6.63;6.10;;;;;;;17.68;80.96;101380.19;5032575;28;20209;-77
2021/08/30 10:11:39;;;;;;;6.87;6.37;;;;;;;17.50;81.82;101349.09;5030840;28;20226;-78
2021/08/30 10:14:07;;;;;;;6.70;6.30;;;;;;;17.36;83.35;101299.41;4333487;28;10000701;-77
2021/08/30 10:16:34;;;;;;;7.23;6.63;;;;;;;17.21;83.71;101272.63;5026636;28;20263;-78
2021/08/30 10:19:02;;;;;;;7.33;6.83;;;;;;;17.14;83.88;101263.16;5026616;28;20208;-77
2021/08/30 10:21:30;;;;;;;8.00;7.40;;;;;;;17.09;84.49;101246.66;5030420;28;20232;-77
2021/08/30 10:23:57;;;;;;;7.30;6.77;;;;;;;16.89;84.67;101223.56;5034073;28;20699;-79
2021/08/30 10:26:23;;;;;;;8.13;7.63;;;;;;;16.80;86.14;101179.00;5037098;28;20237;-78
2021/08/30 10:28:50;;;;;;;7.70;7.10;;;;;;;16.88;86.01;101191.03;5035123;28;20423;-78
2021/08/30 10:31:20;;;;;;;8.30;7.60;;;;;;;16.83;86.15;101171.88;5030540;28;20243;-78
2021/08/30 10:33:49;;;;;;;7.60;7.10;;;;;;;16.88;86.09;101171.72;5031171;28;20258;-78
2021/08/30 10:36:19;;;;;;;8.23;7.53;;;;;;;16.90;86.69;101161.97;5030595;28;20211;-79
2021/08/30 10:38:57;;;;;;;8.03;7.43;;;;;;;16.95;86.73;101157.44;5031799;28;20243;-78
2021/08/30 10:41:29;;;;;;;7.03;6.53;;;;;;;16.94;86.79;101163.59;5032151;28;20266;-77
2021/08/30 10:44:06;;;;;;;7.13;6.67;;;;;;;17.01;86.44;101167.75;5031365;28;20230;-78
2021/08/30 10:46:37;;;;;;;8.83;7.93;;;;;;;17.05;85.95;101182.56;5031448;28;20204;-79
2021/08/30 10:49:09;;;;;;;7.70;7.10;;;;;;;17.17;85.83;101201.53;5027944;28;20205;-79
2021/08/30 10:51:39;;;;;;;9.27;7.93;;;;;;;17.26;84.99;101231.13;5029984;28;20255;-78
2021/08/30 10:54:08;;;;;;;7.60;7.00;;;;;;;17.34;85.54;101209.72;5029038;28;20262;-81
2021/08/30 10:56:34;;;;;;;7.37;6.87;;;;;;;17.45;85.02;101223.41;5029982;28;20203;-78
2021/08/30 10:59:06;;;;;;;8.20;7.57;;;;;;;17.46;86.05;101203.16;5029108;28;20261;-78
2021/08/30 11:01:33;;;;;;;7.53;7.03;;;;;;;17.54;84.74;101222.25;5027146;28;20242;-78
2021/08/30 11:04:00;;;;;;;7.20;6.70;;;;;;;17.58;84.60;101241.44;5025433;28;20208;-78
2021/08/30 11:06:27;;;;;;;8.03;7.23;;;;;;;17.47;83.55;101279.66;5028212;28;20220;-77
2021/08/30 11:08:54;;;;;;;7.50;6.90;;;;;;;17.45;84.80;101230.47;5025087;28;20210;-78
2021/08/30 11:11:22;;;;;;;8.07;7.47;;;;;;;17.51;85.58;101189.81;5022179;28;20226;-78